createdAt,value
2022-08-23T00:00:01.164Z,75.40
2022-08-23T00:02:43.536Z,75.59
2022-08-23T00:05:12.964Z,75.92
2022-08-23T00:07:43.629Z,76.07
2022-08-23T00:10:14.111Z,76.08
2022-08-23T00:12:42.378Z,76.06
2022-08-23T00:15:12.021Z,76.28
2022-08-23T00:17:42.135Z,76.32
2022-08-23T00:20:14.074Z,76.52
2022-08-23T00:22:42.465Z,76.56
2022-08-23T00:25:12.425Z,76.85
2022-08-23T00:27:40.611Z,77.12
2022-08-23T00:30:10.716Z,77.36
2022-08-23T00:32:40.216Z,77.68
2022-08-23T00:35:11.235Z,77.82
2022-08-23T00:37:39.869Z,78.13
2022-08-23T00:40:10.987Z,78.30
2022-08-23T00:42:59.907Z,78.71
2022-08-23T00:45:50.018Z,79.01
2022-08-23T00:48:18.174Z,79.12
2022-08-23T00:50:53.087Z,79.31
2022-08-23T00:53:25.551Z,79.59
2022-08-23T00:55:55.867Z,79.85
2022-08-23T00:58:24.068Z,80.01
2022-08-23T01:00:55.137Z,79.98
2022-08-23T01:03:24.304Z,80.56
2022-08-23T01:05:57.971Z,80.88
2022-08-23T01:08:28.399Z,81.13
2022-08-23T01:11:00.319Z,81.53
2022-08-23T01:13:33.748Z,81.55
2022-08-23T01:16:05.931Z,81.45
2022-08-23T01:18:34.525Z,81.37
2022-08-23T01:21:13.374Z,81.37
2022-08-23T01:23:45.196Z,81.44
2022-08-23T01:26:14.946Z,81.44
2022-08-23T01:28:50.035Z,81.56
2022-08-23T01:31:19.535Z,81.59
2022-08-23T01:33:51.895Z,81.67
2022-08-23T01:36:19.931Z,81.84
2022-08-23T01:38:49.757Z,81.99
2022-08-23T01:41:17.755Z,82.06
2022-08-23T01:43:46.268Z,82.15
2022-08-23T01:46:18.642Z,82.14
2022-08-23T01:48:47.564Z,82.31
2022-08-23T01:51:17.093Z,82.58
2022-08-23T01:53:46.487Z,82.99
2022-08-23T01:56:27.539Z,83.12
2022-08-23T01:59:06.560Z,83.23
2022-08-23T02:01:34.779Z,83.24
2022-08-23T02:04:05.317Z,83.33
2022-08-23T02:06:33.970Z,83.37
2022-08-23T02:09:03.406Z,83.51
2022-08-23T02:11:35.459Z,83.53
2022-08-23T02:14:06.495Z,83.59
2022-08-23T02:16:38.059Z,83.62
2022-08-23T02:19:08.437Z,83.77
2022-08-23T02:21:38.082Z,83.85
2022-08-23T02:24:08.668Z,83.90
2022-08-23T02:26:38.520Z,83.89
2022-08-23T02:29:07.370Z,83.97
2022-08-23T02:31:37.592Z,84.01
2022-08-23T02:36:51.523Z,84.09
2022-08-23T02:39:19.642Z,84.04
2022-08-23T02:41:49.825Z,83.82
2022-08-23T02:44:18.498Z,83.88
2022-08-23T02:46:46.956Z,83.75
2022-08-23T02:49:16.042Z,83.82
2022-08-23T02:51:44.438Z,83.81
2022-08-23T02:54:12.542Z,83.90
2022-08-23T02:56:40.836Z,83.85
2022-08-23T02:59:10.203Z,83.87
2022-08-23T03:01:39.982Z,83.99
2022-08-23T03:04:09.324Z,84.02
2022-08-23T03:06:37.721Z,84.04
2022-08-23T03:09:07.639Z,84.09
2022-08-23T03:11:35.866Z,84.07
2022-08-23T03:14:03.913Z,84.01
2022-08-23T03:16:33.442Z,84.01
2022-08-23T03:19:02.246Z,84.17
2022-08-23T03:21:31.223Z,84.38
2022-08-23T03:24:00.708Z,84.32
2022-08-23T03:26:28.684Z,84.32
2022-08-23T03:28:57.064Z,84.30
2022-08-23T03:31:25.374Z,84.22
2022-08-23T03:33:59.267Z,84.13
2022-08-23T03:36:28.140Z,84.19
2022-08-23T03:38:56.539Z,84.29
2022-08-23T03:41:25.291Z,84.33
2022-08-23T03:43:53.629Z,84.44
2022-08-23T03:46:23.980Z,84.42
2022-08-23T03:48:52.180Z,84.31
2022-08-23T03:51:22.270Z,84.48
2022-08-23T03:53:50.426Z,84.16
2022-08-23T03:56:30.926Z,84.16
2022-08-23T03:59:00.769Z,84.13
2022-08-23T04:01:29.081Z,83.99
2022-08-23T04:03:59.942Z,84.02
2022-08-23T04:06:29.836Z,84.02
2022-08-23T04:08:57.889Z,84.10
2022-08-23T04:11:26.409Z,84.14
2022-08-23T04:13:54.415Z,84.09
2022-08-23T04:16:22.706Z,84.10
2022-08-23T04:18:50.725Z,84.16
2022-08-23T04:21:23.365Z,84.26
2022-08-23T04:23:52.727Z,84.24
2022-08-23T04:26:21.434Z,84.22
2022-08-23T04:28:49.423Z,84.31
2022-08-23T04:31:18.391Z,84.35
2022-08-23T04:33:46.436Z,84.26
2022-08-23T04:36:20.624Z,84.35
2022-08-23T04:38:52.651Z,84.28
2022-08-23T04:41:38.273Z,84.39
2022-08-23T04:44:06.834Z,84.47
2022-08-23T04:46:35.527Z,84.57
2022-08-23T04:49:04.477Z,84.71
2022-08-23T04:51:32.726Z,84.79
2022-08-23T04:54:02.078Z,84.87
2022-08-23T04:56:30.479Z,84.83
2022-08-23T04:58:58.758Z,84.80
2022-08-23T05:01:26.826Z,84.73
2022-08-23T05:03:55.373Z,84.70
2022-08-23T05:06:23.490Z,84.64
2022-08-23T05:08:51.497Z,84.64
2022-08-23T05:11:21.428Z,84.55
2022-08-23T05:13:49.502Z,84.61
2022-08-23T05:16:17.907Z,84.54
2022-08-23T05:18:47.119Z,84.43
2022-08-23T05:21:16.772Z,84.33
2022-08-23T05:23:45.133Z,84.20
2022-08-23T05:26:20.858Z,84.03
2022-08-23T05:28:50.117Z,83.88
2022-08-23T05:31:20.044Z,83.58
2022-08-23T05:33:48.303Z,83.44
2022-08-23T05:36:17.859Z,83.16
2022-08-23T05:38:46.950Z,82.72
2022-08-23T05:41:15.288Z,82.43
2022-08-23T05:43:45.431Z,82.13
2022-08-23T05:46:14.807Z,81.80
2022-08-23T05:48:46.862Z,81.22
2022-08-23T05:51:16.909Z,80.50
2022-08-23T05:53:46.019Z,80.09
2022-08-23T05:56:16.284Z,79.51
2022-08-23T05:58:46.248Z,79.42
2022-08-23T06:01:15.599Z,79.34
2022-08-23T06:03:44.308Z,79.49
2022-08-23T06:06:14.968Z,79.39
2022-08-23T06:08:47.050Z,79.32
2022-08-23T06:11:17.995Z,79.38
2022-08-23T06:13:49.316Z,79.35
2022-08-23T06:16:19.868Z,79.22
2022-08-23T06:18:47.994Z,79.14
2022-08-23T06:21:16.560Z,78.99
2022-08-23T06:23:44.620Z,78.76
2022-08-23T06:26:14.921Z,78.96
2022-08-23T06:28:50.926Z,78.91
2022-08-23T06:31:36.764Z,78.60
2022-08-23T06:34:04.853Z,78.62
2022-08-23T06:36:33.336Z,78.28
2022-08-23T06:39:01.328Z,78.15
2022-08-23T06:41:29.649Z,78.04
2022-08-23T06:43:57.621Z,77.49
2022-08-23T06:46:29.520Z,77.57
2022-08-23T06:48:59.535Z,77.28
2022-08-23T06:51:30.364Z,77.22
2022-08-23T06:54:03.009Z,76.99
2022-08-23T06:56:31.774Z,76.47
2022-08-23T06:59:00.136Z,76.32
2022-08-23T07:01:48.489Z,76.08
2022-08-23T07:04:20.071Z,75.44
2022-08-23T07:06:48.208Z,75.81
2022-08-23T07:09:16.551Z,75.65
2022-08-23T07:11:44.515Z,75.78
2022-08-23T07:14:14.582Z,75.39
2022-08-23T07:16:45.851Z,75.17
2022-08-23T07:19:14.290Z,74.73
2022-08-23T07:21:42.817Z,73.87
2022-08-23T07:24:10.860Z,74.09
2022-08-23T07:26:39.620Z,73.26
2022-08-23T07:29:08.269Z,72.49
2022-08-23T07:31:40.289Z,71.51
2022-08-23T07:34:10.228Z,70.79
2022-08-23T07:36:38.449Z,69.56
2022-08-23T07:39:07.662Z,68.97
2022-08-23T07:41:36.093Z,67.60
2022-08-23T07:44:06.597Z,66.73
2022-08-23T07:46:35.512Z,66.59
2022-08-23T07:49:05.181Z,66.11
2022-08-23T07:51:35.697Z,66.74
2022-08-23T07:54:05.617Z,65.93
2022-08-23T07:56:33.747Z,65.72
2022-08-23T07:59:02.383Z,65.69
2022-08-23T08:01:31.034Z,65.65
2022-08-23T08:04:01.354Z,65.25
2022-08-23T08:06:31.105Z,64.70
2022-08-23T08:09:00.708Z,64.23
2022-08-23T08:11:34.523Z,63.74
2022-08-23T08:14:04.651Z,62.95
2022-08-23T08:16:34.397Z,62.25
2022-08-23T08:19:07.576Z,60.33
2022-08-23T08:21:39.615Z,56.63
2022-08-23T08:24:13.482Z,55.11
2022-08-23T08:26:42.167Z,57.00
2022-08-23T08:29:12.158Z,59.29
2022-08-23T08:31:41.635Z,56.11
2022-08-23T08:34:10.226Z,55.32
2022-08-23T08:36:40.365Z,55.66
2022-08-23T08:39:11.904Z,57.22
2022-08-23T08:42:04.268Z,58.42
2022-08-23T08:44:38.435Z,57.59
2022-08-23T08:47:11.231Z,56.70
2022-08-23T08:49:46.193Z,56.72
2022-08-23T08:52:18.672Z,57.25
2022-08-23T08:54:53.246Z,56.54
2022-08-23T08:57:27.743Z,56.01
2022-08-23T09:00:00.122Z,54.11
2022-08-23T09:02:33.626Z,52.08
2022-08-23T09:05:03.913Z,50.93
2022-08-23T09:07:38.337Z,52.44
2022-08-23T09:10:21.199Z,54.40
2022-08-23T09:12:53.400Z,52.46
2022-08-23T09:15:27.221Z,50.70
2022-08-23T09:17:57.105Z,49.66
2022-08-23T09:20:32.874Z,50.23
2022-08-23T09:23:05.647Z,48.64
2022-08-23T09:25:37.071Z,51.71
2022-08-23T09:28:06.103Z,52.89
2022-08-23T09:30:50.033Z,54.53
2022-08-23T09:33:19.967Z,55.43
2022-08-23T09:36:04.837Z,53.44
2022-08-23T09:38:33.704Z,52.42
2022-08-23T09:41:20.367Z,54.30
2022-08-23T09:43:49.829Z,53.35
2022-08-23T09:46:27.008Z,50.87
2022-08-23T09:48:58.263Z,51.92
2022-08-23T09:51:29.949Z,52.38
2022-08-23T09:54:08.249Z,51.47
2022-08-23T09:56:39.932Z,52.82
2022-08-23T09:59:33.610Z,52.57
2022-08-23T10:02:02.556Z,53.66
2022-08-23T10:04:41.469Z,54.21
2022-08-23T10:07:27.926Z,54.15
2022-08-23T10:09:56.253Z,54.47
2022-08-23T10:12:25.655Z,55.27
2022-08-23T10:14:53.832Z,55.66
2022-08-23T10:17:31.011Z,54.18
2022-08-23T10:20:05.977Z,52.19
2022-08-23T10:22:41.150Z,50.95
2022-08-23T10:25:13.410Z,51.31
2022-08-23T10:28:04.327Z,52.79
2022-08-23T10:30:45.928Z,53.52
2022-08-23T10:33:18.633Z,54.72
2022-08-23T10:35:50.772Z,53.73
2022-08-23T10:38:44.101Z,53.67
2022-08-23T10:41:22.072Z,52.32
2022-08-23T10:43:57.731Z,52.01
2022-08-23T10:46:29.237Z,51.26
2022-08-23T10:49:00.066Z,51.36
2022-08-23T10:51:32.328Z,51.62
2022-08-23T10:54:04.223Z,52.68
2022-08-23T10:56:32.473Z,52.97
2022-08-23T10:59:04.978Z,52.14
2022-08-23T11:01:46.887Z,51.22
2022-08-23T11:04:21.633Z,50.76
2022-08-23T11:06:52.413Z,51.23
2022-08-23T11:09:37.208Z,51.78
2022-08-23T11:12:35.634Z,52.36
2022-08-23T11:15:15.166Z,51.12
2022-08-23T11:18:03.595Z,52.39
2022-08-23T11:21:04.784Z,51.83
2022-08-23T11:23:42.598Z,50.95
2022-08-23T11:26:13.437Z,51.01
2022-08-23T11:28:44.061Z,50.37
2022-08-23T11:31:25.461Z,49.59
2022-08-23T11:33:59.875Z,49.84
2022-08-23T11:36:29.224Z,51.01
2022-08-23T11:39:11.706Z,49.67
2022-08-23T11:42:01.503Z,48.67
2022-08-23T11:44:38.273Z,48.91
2022-08-23T11:47:09.890Z,47.80
2022-08-23T11:50:17.265Z,48.41
2022-08-23T11:53:07.745Z,46.81
2022-08-23T11:55:52.870Z,45.85
2022-08-23T11:58:24.242Z,44.50
2022-08-23T12:00:57.389Z,44.58
2022-08-23T12:03:33.520Z,44.88
2022-08-23T12:06:08.951Z,45.16
2022-08-23T12:08:50.326Z,42.50
2022-08-23T12:11:19.211Z,44.95
2022-08-23T12:13:59.597Z,46.64
2022-08-23T12:16:36.615Z,47.16
2022-08-23T12:19:13.552Z,47.19
2022-08-23T12:21:48.351Z,46.73
2022-08-23T12:24:20.450Z,47.28
2022-08-23T12:26:50.695Z,48.28
2022-08-23T12:29:24.504Z,48.64
2022-08-23T12:31:58.978Z,48.39
2022-08-23T12:34:35.032Z,49.22
2022-08-23T12:37:11.009Z,48.46
2022-08-23T12:39:41.398Z,48.90
2022-08-23T12:42:15.529Z,47.04
2022-08-23T12:44:45.046Z,47.34
2022-08-23T12:47:16.379Z,46.95
2022-08-23T12:49:56.043Z,48.25
2022-08-23T12:52:25.915Z,48.01
2022-08-23T12:54:57.656Z,48.39
2022-08-23T12:57:34.678Z,48.86
2022-08-23T13:00:16.636Z,50.75
2022-08-23T13:02:50.210Z,51.60
2022-08-23T13:05:27.640Z,51.76
2022-08-23T13:07:55.747Z,52.70
2022-08-23T13:10:24.912Z,51.94
2022-08-23T13:12:53.125Z,52.55
2022-08-23T13:15:43.806Z,53.40
2022-08-23T13:18:11.882Z,53.55
2022-08-23T13:20:41.225Z,53.56
2022-08-23T13:23:10.202Z,52.98
2022-08-23T13:25:40.083Z,52.76
2022-08-23T13:28:25.630Z,52.52
2022-08-23T13:30:59.837Z,52.92
2022-08-23T13:33:27.895Z,52.87
2022-08-23T13:36:13.078Z,52.18
2022-08-23T13:38:42.115Z,52.58
2022-08-23T13:41:13.813Z,52.33
2022-08-23T13:43:51.018Z,52.28
2022-08-23T13:46:22.486Z,52.51
2022-08-23T13:48:55.917Z,51.95
2022-08-23T13:51:31.438Z,51.19
2022-08-23T13:54:01.472Z,51.31
2022-08-23T13:56:31.080Z,51.39
2022-08-23T13:59:04.352Z,51.74
2022-08-23T14:01:32.805Z,51.66
2022-08-23T14:04:00.980Z,50.56
2022-08-23T14:06:30.416Z,49.49
2022-08-23T14:08:58.409Z,50.33
2022-08-23T14:11:26.431Z,50.37
2022-08-23T14:13:54.474Z,50.43
2022-08-23T14:16:34.153Z,50.62
2022-08-23T14:20:31.409Z,50.51
2022-08-23T14:21:53.792Z,51.05
2022-08-23T14:24:22.037Z,50.92
2022-08-23T14:26:52.297Z,50.83
2022-08-23T14:29:22.578Z,50.70
2022-08-23T14:31:51.468Z,50.26
2022-08-23T14:34:19.531Z,50.73
2022-08-23T14:39:37.129Z,51.22
2022-08-23T14:42:05.757Z,51.91
2022-08-23T14:44:36.157Z,52.00
2022-08-23T14:47:05.685Z,52.91
2022-08-23T14:49:33.816Z,52.88
2022-08-23T14:52:01.926Z,52.52
2022-08-23T14:54:29.944Z,52.77
2022-08-23T14:56:59.319Z,52.28
2022-08-23T14:59:27.382Z,52.28
2022-08-23T15:01:55.777Z,52.41
2022-08-23T15:04:24.747Z,52.53
2022-08-23T15:07:16.810Z,52.24
2022-08-23T15:09:41.353Z,51.97
2022-08-23T15:14:58.953Z,51.65
2022-08-23T15:17:31.226Z,52.10
2022-08-23T15:20:00.398Z,52.20
2022-08-23T15:22:28.526Z,52.25
2022-08-23T15:24:56.517Z,52.60
2022-08-23T15:27:25.936Z,52.43
2022-08-23T15:29:53.918Z,52.70
2022-08-23T15:32:22.264Z,52.21
2022-08-23T15:34:51.271Z,52.11
2022-08-23T15:37:21.006Z,52.41
2022-08-23T15:39:50.482Z,52.14
2022-08-23T15:42:20.448Z,52.06
2022-08-23T15:44:51.493Z,52.12
2022-08-23T15:47:22.057Z,52.09
2022-08-23T15:49:50.130Z,51.98
2022-08-23T15:52:18.375Z,52.12
2022-08-23T15:54:46.877Z,51.46
2022-08-23T15:57:16.477Z,51.69
2022-08-23T15:59:46.633Z,51.77
2022-08-23T16:02:16.312Z,52.21
2022-08-23T16:04:44.824Z,52.33
2022-08-23T16:07:16.076Z,52.53
2022-08-23T16:09:44.728Z,52.57
2022-08-23T16:12:12.687Z,52.37
2022-08-23T16:14:40.730Z,52.51
2022-08-23T16:17:09.313Z,52.84
2022-08-23T16:19:38.696Z,52.65
2022-08-23T16:22:06.655Z,53.08
2022-08-23T16:24:34.917Z,53.02
2022-08-23T16:27:03.011Z,53.24
2022-08-23T16:29:33.340Z,53.82
2022-08-23T16:32:01.461Z,54.30
2022-08-23T16:34:30.581Z,53.95
2022-08-23T16:37:01.633Z,54.28
2022-08-23T16:39:29.956Z,54.43
2022-08-23T16:41:58.031Z,54.14
2022-08-23T16:44:26.169Z,54.17
2022-08-23T16:46:54.495Z,54.36
2022-08-23T16:49:22.546Z,54.34
2022-08-23T16:51:50.837Z,54.64
2022-08-23T16:54:21.052Z,54.95
2022-08-23T16:56:49.347Z,54.85
2022-08-23T16:59:18.204Z,55.03
2022-08-23T17:01:49.400Z,54.90
2022-08-23T17:04:18.427Z,54.69
2022-08-23T17:06:46.685Z,55.13
2022-08-23T17:09:15.624Z,54.94
2022-08-23T17:11:45.109Z,55.19
2022-08-23T17:14:13.447Z,54.64
2022-08-23T17:16:42.223Z,54.68
2022-08-23T17:19:10.263Z,54.78
2022-08-23T17:21:39.271Z,54.52
2022-08-23T17:24:08.170Z,55.18
2022-08-23T17:26:37.206Z,54.72
2022-08-23T17:29:07.439Z,55.11
2022-08-23T17:31:35.465Z,54.91
2022-08-23T17:34:03.998Z,55.07
2022-08-23T17:36:34.330Z,55.40
2022-08-23T17:39:02.917Z,55.67
2022-08-23T17:41:31.859Z,55.78
2022-08-23T17:44:04.279Z,55.88
2022-08-23T17:46:35.047Z,56.25
2022-08-23T17:49:03.125Z,56.63
2022-08-23T17:51:31.107Z,56.75
2022-08-23T17:53:59.156Z,57.03
2022-08-23T17:56:27.582Z,57.27
2022-08-23T17:58:55.794Z,57.62
2022-08-23T18:01:23.913Z,57.89
2022-08-23T18:03:53.324Z,58.33
2022-08-23T18:06:21.431Z,58.94
2022-08-23T18:08:49.467Z,59.26
2022-08-23T18:11:17.659Z,59.66
2022-08-23T18:13:45.696Z,59.97
2022-08-23T18:16:14.333Z,60.52
2022-08-23T18:18:42.581Z,60.72
2022-08-23T18:21:13.035Z,61.18
2022-08-23T18:23:41.721Z,61.69
2022-08-23T18:26:32.536Z,61.94
2022-08-23T18:29:00.651Z,62.13
2022-08-23T18:31:28.755Z,62.19
2022-08-23T18:34:00.544Z,62.40
2022-08-23T18:36:30.294Z,62.63
2022-08-23T18:38:58.517Z,62.85
2022-08-23T18:41:26.668Z,63.11
2022-08-23T18:43:54.835Z,63.35
2022-08-23T18:46:23.206Z,63.72
2022-08-23T18:48:53.502Z,64.11
2022-08-23T18:51:23.119Z,64.48
2022-08-23T18:53:52.475Z,64.85
2022-08-23T18:56:20.449Z,65.07
2022-08-23T18:58:48.892Z,65.50
2022-08-23T19:01:21.770Z,65.87
2022-08-23T19:03:49.974Z,66.16
2022-08-23T19:06:18.425Z,66.61
2022-08-23T19:08:46.727Z,66.94
2022-08-23T19:11:16.782Z,67.08
2022-08-23T19:13:44.985Z,67.36
2022-08-23T19:16:14.139Z,67.75
2022-08-23T19:18:42.955Z,67.88
2022-08-23T19:21:11.063Z,68.29
2022-08-23T19:23:39.006Z,68.55
2022-08-23T19:26:10.289Z,68.74
2022-08-23T19:28:40.365Z,69.06
2022-08-23T19:31:09.018Z,69.21
2022-08-23T19:33:37.005Z,69.46
2022-08-23T19:36:06.432Z,69.70
2022-08-23T19:38:34.556Z,69.85
2022-08-23T19:41:05.264Z,70.30
2022-08-23T19:43:35.182Z,70.53
2022-08-23T19:46:08.001Z,70.95
2022-08-23T19:48:36.068Z,71.23
2022-08-23T19:51:04.056Z,71.53
2022-08-23T19:53:32.136Z,71.67
2022-08-23T19:56:02.651Z,71.91
2022-08-23T19:58:31.365Z,72.04
2022-08-23T20:00:59.357Z,72.36
2022-08-23T20:03:28.729Z,72.46
2022-08-23T20:05:56.772Z,72.59
2022-08-23T20:08:25.234Z,72.59
2022-08-23T20:10:53.275Z,72.68
2022-08-23T20:13:23.321Z,72.62
2022-08-23T20:15:55.646Z,72.58
2022-08-23T20:18:24.870Z,72.45
2022-08-23T20:20:55.047Z,72.53
2022-08-23T20:23:40.297Z,72.56
2022-08-23T20:26:10.349Z,72.74
2022-08-23T20:28:38.531Z,72.85
2022-08-23T20:31:25.566Z,72.99
2022-08-23T20:33:54.064Z,73.05
2022-08-23T20:36:24.654Z,73.18
2022-08-23T20:38:52.683Z,73.32
2022-08-23T20:41:20.691Z,73.56
2022-08-23T20:43:49.463Z,73.56
2022-08-23T20:46:17.566Z,73.68
2022-08-23T20:48:45.885Z,73.83
2022-08-23T20:51:14.231Z,74.05
2022-08-23T20:53:43.719Z,74.16
2022-08-23T20:56:12.223Z,74.16
2022-08-23T20:58:40.333Z,74.36
2022-08-23T21:01:11.380Z,74.55
2022-08-23T21:03:39.917Z,74.76
2022-08-23T21:06:12.438Z,74.94
2022-08-23T21:08:43.464Z,74.97
2022-08-23T21:11:13.239Z,74.94
2022-08-23T21:13:43.999Z,74.95
2022-08-23T21:16:12.158Z,75.00
2022-08-23T21:18:40.471Z,75.20
2022-08-23T21:21:08.557Z,75.29
2022-08-23T21:23:37.574Z,75.24
2022-08-23T21:26:06.506Z,75.41
2022-08-23T21:28:36.971Z,75.63
2022-08-23T21:31:06.795Z,75.82
2022-08-23T21:33:39.441Z,75.95
2022-08-23T21:36:08.480Z,76.13
2022-08-23T21:38:36.980Z,76.33
2022-08-23T21:41:07.736Z,76.55
2022-08-23T21:43:37.962Z,76.53
2022-08-23T21:46:07.223Z,76.61
2022-08-23T21:48:35.740Z,76.81
2022-08-23T21:51:03.726Z,77.15
2022-08-23T21:53:31.826Z,77.20
2022-08-23T21:55:59.867Z,77.17
2022-08-23T21:58:27.916Z,77.29
2022-08-23T22:00:57.239Z,77.44
2022-08-23T22:03:25.295Z,77.51
2022-08-23T22:05:54.267Z,77.67
2022-08-23T22:08:22.355Z,77.87
2022-08-23T22:10:57.066Z,78.09
2022-08-23T22:13:28.119Z,78.27
2022-08-23T22:15:57.967Z,78.42
2022-08-23T22:18:26.005Z,78.52
2022-08-23T22:20:54.351Z,78.62
2022-08-23T22:23:22.421Z,78.73
2022-08-23T22:25:50.467Z,78.87
2022-08-23T22:28:18.645Z,78.93
2022-08-23T22:30:46.670Z,79.01
2022-08-23T22:33:16.163Z,79.11
2022-08-23T22:35:48.827Z,79.24
2022-08-23T22:38:17.261Z,79.48
2022-08-23T22:40:48.715Z,79.65
2022-08-23T22:43:17.051Z,79.81
2022-08-23T22:45:52.018Z,80.07
2022-08-23T22:48:22.143Z,80.24
2022-08-23T22:50:50.707Z,80.42
2022-08-23T22:53:19.806Z,80.63
2022-08-23T22:55:51.201Z,80.79
2022-08-23T22:58:19.234Z,81.05
2022-08-23T23:00:47.205Z,81.29
2022-08-23T23:03:15.214Z,81.53
2022-08-23T23:05:45.732Z,81.76
2022-08-23T23:08:28.931Z,82.09
2022-08-23T23:10:58.603Z,82.71
2022-08-23T23:13:27.883Z,82.97
2022-08-23T23:15:57.208Z,83.16
2022-08-23T23:18:26.848Z,83.43
2022-08-23T23:20:57.899Z,83.77
2022-08-23T23:23:26.817Z,83.80
2022-08-23T23:25:54.783Z,83.87
2022-08-23T23:28:23.120Z,84.03
2022-08-23T23:30:53.196Z,84.18
2022-08-23T23:33:22.412Z,84.61
2022-08-23T23:35:51.949Z,84.75
2022-08-23T23:38:21.313Z,84.75
2022-08-23T23:40:49.276Z,84.73
2022-08-23T23:43:17.329Z,84.80
2022-08-23T23:45:45.343Z,85.06
2022-08-23T23:48:13.370Z,85.22
2022-08-23T23:50:45.126Z,85.46
2022-08-23T23:53:15.329Z,85.94
2022-08-23T23:55:44.680Z,86.12
2022-08-23T23:58:12.714Z,87.47
